Time,TemperatureF,DewpointF,PressureIn,WindDirection,WindDirectionDegrees,WindSpeedMPH,WindSpeedGustMPH,Humidity,HourlyPrecipIn,Conditions,Clouds,dailyrainin,SoftwareType,DateUTC
2013-08-12 00:00:00,73.3,56.2,29.94,SE,133,0.0,8.0,55,0.00,,,0.01,Wunderground v.1.15,2013-08-12 06:00:00,
2013-08-12 00:10:00,73.1,56.0,29.94,SE,133,0.0,0.0,55,0.00,,,0.00,Wunderground v.1.15,2013-08-12 06:10:00,
2013-08-12 00:20:00,72.9,56.3,29.94,SE,133,0.0,0.0,56,0.00,,,0.00,Wunderground v.1.15,2013-08-12 06:20:00,
2013-08-12 00:30:00,72.5,56.4,29.94,SE,133,0.0,0.0,57,0.00,,,0.00,Wunderground v.1.15,2013-08-12 06:30:00,
2013-08-12 00:40:00,72.5,56.4,29.94,SE,133,0.0,0.0,57,0.00,,,0.00,Wunderground v.1.15,2013-08-12 06:40:00,
2013-08-12 00:50:00,72.5,56.4,29.94,SE,133,0.0,1.0,57,0.00,,,0.00,Wunderground v.1.15,2013-08-12 06:50:00,
2013-08-12 01:00:00,72.6,56.5,29.94,SE,133,0.0,0.0,57,0.00,,,0.00,Wunderground v.1.15,2013-08-12 07:00:00,
2013-08-12 01:10:00,72.5,56.9,29.94,SE,133,0.0,3.0,58,0.00,,,0.00,Wunderground v.1.15,2013-08-12 07:10:00,
2013-08-12 01:20:00,72.0,56.9,29.94,SE,133,0.0,3.0,59,0.00,,,0.00,Wunderground v.1.15,2013-08-12 07:20:00,
2013-08-12 01:30:00,71.7,56.6,29.94,SE,133,0.0,3.0,59,0.00,,,0.00,Wunderground v.1.15,2013-08-12 07:30:00,
2013-08-12 01:40:00,71.7,56.6,29.94,SE,133,0.0,3.0,59,0.00,,,0.00,Wunderground v.1.15,2013-08-12 07:40:00,
2013-08-12 01:50:00,71.6,57.0,29.94,SE,133,0.0,3.0,60,0.00,,,0.00,Wunderground v.1.15,2013-08-12 07:50:00,
2013-08-12 02:00:00,71.5,56.9,29.94,SE,133,0.0,3.0,60,0.00,,,0.00,Wunderground v.1.15,2013-08-12 08:00:00,
2013-08-12 02:10:00,71.5,56.9,29.94,SE,133,0.0,3.0,60,0.00,,,0.00,Wunderground v.1.15,2013-08-12 08:10:00,
2013-08-12 02:20:00,71.8,57.2,29.94,SE,133,0.0,3.0,60,0.00,,,0.00,Wunderground v.1.15,2013-08-12 08:20:00,
2013-08-12 02:30:00,71.3,57.2,29.94,SE,133,0.0,3.0,61,0.00,,,0.00,Wunderground v.1.15,2013-08-12 08:30:00,
2013-08-12 02:40:00,71.0,57.3,29.93,SE,133,0.0,3.0,62,0.00,,,0.00,Wunderground v.1.15,2013-08-12 08:40:00,
2013-08-12 02:50:00,71.2,57.5,29.94,SE,133,1.0,3.0,62,0.00,,,0.00,Wunderground v.1.15,2013-08-12 08:50:00,
2013-08-12 03:00:00,71.2,57.1,29.93,SE,133,3.0,3.0,61,0.00,,,0.00,Wunderground v.1.15,2013-08-12 09:00:00,
2013-08-12 03:10:00,70.9,57.2,29.93,SE,133,3.0,3.0,62,0.00,,,0.00,Wunderground v.1.15,2013-08-12 09:10:00,
2013-08-12 03:20:00,70.6,57.4,29.93,SE,133,1.0,3.0,63,0.00,,,0.00,Wunderground v.1.15,2013-08-12 09:20:00,
2013-08-12 03:30:00,70.2,57.0,29.93,SSE,147,3.0,4.0,63,0.00,,,0.00,Wunderground v.1.15,2013-08-12 09:30:00,
2013-08-12 03:40:00,69.6,55.1,29.93,SE,129,4.0,4.0,60,0.00,,,0.00,Wunderground v.1.15,2013-08-12 09:40:00,
2013-08-12 03:50:00,69.4,54.0,29.94,SE,135,3.0,3.0,58,0.00,,,0.00,Wunderground v.1.15,2013-08-12 09:50:00,
2013-08-12 04:00:00,69.3,53.4,29.94,SE,135,0.0,3.0,57,0.00,,,0.00,Wunderground v.1.15,2013-08-12 10:00:00,
2013-08-12 04:10:00,69.2,53.3,29.94,SE,135,0.0,3.0,57,0.00,,,0.00,Wunderground v.1.15,2013-08-12 10:10:00,
2013-08-12 04:20:00,69.4,53.5,29.94,SE,135,0.0,3.0,57,0.00,,,0.00,Wunderground v.1.15,2013-08-12 10:20:00,
2013-08-12 04:30:00,69.5,53.6,29.94,SE,135,0.0,3.0,57,0.00,,,0.00,Wunderground v.1.15,2013-08-12 10:30:00,
2013-08-12 04:40:00,69.5,53.6,29.94,SE,135,0.0,3.0,57,0.00,,,0.00,Wunderground v.1.15,2013-08-12 10:40:00,
2013-08-12 04:50:00,69.6,53.7,29.94,SE,135,0.0,3.0,57,0.00,,,0.00,Wunderground v.1.15,2013-08-12 10:50:00,
2013-08-12 05:00:00,69.8,53.9,29.93,SE,135,0.0,3.0,57,0.00,,,0.00,Wunderground v.1.15,2013-08-12 11:00:00,
2013-08-12 05:10:00,69.8,54.4,29.93,SE,135,0.0,3.0,58,0.00,,,0.00,Wunderground v.1.15,2013-08-12 11:10:00,
2013-08-12 05:20:00,69.9,54.9,29.93,SE,135,0.0,3.0,59,0.00,,,0.00,Wunderground v.1.15,2013-08-12 11:20:00,
2013-08-12 05:30:00,69.9,54.9,29.93,SE,135,1.0,1.0,59,0.00,,,0.00,Wunderground v.1.15,2013-08-12 11:30:00,
2013-08-12 05:40:00,69.9,54.9,29.93,SE,135,0.0,3.0,59,0.00,,,0.00,Wunderground v.1.15,2013-08-12 11:40:00,
2013-08-12 05:50:00,70.0,55.0,29.93,SE,135,1.0,1.0,59,0.00,,,0.00,Wunderground v.1.15,2013-08-12 11:50:00,
2013-08-12 06:00:00,70.1,55.6,29.94,SE,135,2.0,3.0,60,0.00,,,0.00,Wunderground v.1.15,2013-08-12 12:00:00,
2013-08-12 06:10:00,69.9,55.4,29.94,SSE,153,4.0,4.0,60,0.00,,,0.00,Wunderground v.1.15,2013-08-12 12:10:00,
2013-08-12 06:20:00,69.5,55.9,29.94,SE,140,4.0,4.0,62,0.00,,,0.00,Wunderground v.1.15,2013-08-12 12:20:00,
2013-08-12 06:30:00,67.9,56.1,29.94,SE,146,6.0,9.0,66,0.00,,,0.00,Wunderground v.1.15,2013-08-12 12:30:00,
2013-08-12 06:40:00,66.7,55.8,29.94,SE,144,5.0,6.0,68,0.00,,,0.00,Wunderground v.1.15,2013-08-12 12:40:00,
2013-08-12 06:50:00,66.5,56.0,29.94,SE,143,4.0,4.0,69,0.00,,,0.00,Wunderground v.1.15,2013-08-12 12:50:00,
2013-08-12 07:00:00,66.6,55.7,29.94,SE,146,4.0,6.0,68,0.00,,,0.00,Wunderground v.1.15,2013-08-12 13:00:00,
2013-08-12 07:10:00,66.9,55.6,29.95,SSE,155,3.0,4.0,67,0.00,,,0.00,Wunderground v.1.15,2013-08-12 13:10:00,
2013-08-12 07:20:00,67.3,55.5,29.95,SSE,159,3.0,3.0,66,0.00,,,0.00,Wunderground v.1.15,2013-08-12 13:20:00,
2013-08-12 07:30:00,67.9,55.7,29.95,SSE,166,3.0,4.0,65,0.00,,,0.00,Wunderground v.1.15,2013-08-12 13:30:00,
2013-08-12 07:40:00,67.2,56.3,29.95,SSW,198,5.0,5.0,68,0.00,,,0.00,Wunderground v.1.15,2013-08-12 13:40:00,
2013-08-12 07:50:00,67.5,56.2,29.95,SSW,198,3.0,3.0,67,0.00,,,0.00,Wunderground v.1.15,2013-08-12 13:50:00,
2013-08-12 08:00:00,67.7,56.8,29.95,SSW,198,3.0,3.0,68,0.00,,,0.00,Wunderground v.1.15,2013-08-12 14:00:00,
2013-08-12 08:10:00,67.8,56.4,29.96,SSW,198,1.0,1.0,67,0.00,,,0.00,Wunderground v.1.15,2013-08-12 14:10:00,
2013-08-12 08:20:00,68.5,56.7,29.96,SSW,198,1.0,1.0,66,0.00,,,0.00,Wunderground v.1.15,2013-08-12 14:20:00,
2013-08-12 08:30:00,68.8,57.0,29.96,South,172,3.0,5.0,66,0.00,,,0.00,Wunderground v.1.15,2013-08-12 14:30:00,
2013-08-12 08:40:00,68.7,56.9,29.97,South,190,4.0,4.0,66,0.00,,,0.00,Wunderground v.1.15,2013-08-12 14:40:00,
2013-08-12 08:50:00,68.2,57.6,29.97,SSW,196,5.0,5.0,69,0.00,,,0.00,Wunderground v.1.15,2013-08-12 14:50:00,
2013-08-12 09:00:00,68.0,57.4,29.98,South,189,4.0,5.0,69,0.00,,,0.00,Wunderground v.1.15,2013-08-12 15:00:00,
2013-08-12 09:10:00,68.0,57.8,29.98,SSW,200,5.0,5.0,70,0.00,,,0.00,Wunderground v.1.15,2013-08-12 15:10:00,
2013-08-12 09:20:00,68.7,57.7,29.98,South,172,5.0,5.0,68,0.00,,,0.00,Wunderground v.1.15,2013-08-12 15:20:00,
2013-08-12 09:30:00,67.7,58.3,29.98,SSW,195,7.0,7.0,72,0.00,,,0.00,Wunderground v.1.15,2013-08-12 15:30:00,
2013-08-12 09:40:00,67.5,58.2,29.98,South,169,5.0,7.0,72,0.00,,,0.00,Wunderground v.1.15,2013-08-12 15:40:00,
2013-08-12 09:50:00,67.4,58.4,29.99,South,178,6.0,6.0,73,0.00,,,0.00,Wunderground v.1.15,2013-08-12 15:50:00,
2013-08-12 10:00:00,67.7,58.7,29.99,SSE,167,5.0,5.0,73,0.00,,,0.00,Wunderground v.1.15,2013-08-12 16:00:00,
2013-08-12 10:10:00,67.7,58.3,29.99,SSE,162,5.0,5.0,72,0.00,,,0.00,Wunderground v.1.15,2013-08-12 16:10:00,
2013-08-12 10:20:00,68.3,57.7,29.99,South,169,5.0,5.0,69,0.00,,,0.00,Wunderground v.1.15,2013-08-12 16:20:00,
2013-08-12 10:30:00,68.4,58.6,29.99,SSW,195,5.0,5.0,71,0.00,,,0.00,Wunderground v.1.15,2013-08-12 16:30:00,
2013-08-12 10:40:00,68.5,58.3,30.00,SSW,208,5.0,5.0,70,0.00,,,0.00,Wunderground v.1.15,2013-08-12 16:40:00,
2013-08-12 10:50:00,68.5,58.7,30.00,SSW,206,4.0,4.0,71,0.00,,,0.00,Wunderground v.1.15,2013-08-12 16:50:00,
2013-08-12 11:00:00,68.6,58.4,30.00,SSW,206,4.0,5.0,70,0.00,,,0.00,Wunderground v.1.15,2013-08-12 17:00:00,
2013-08-12 11:10:00,69.0,58.4,30.00,SSW,205,3.0,3.0,69,0.00,,,0.00,Wunderground v.1.15,2013-08-12 17:10:00,
2013-08-12 11:20:00,69.2,58.2,29.99,South,190,4.0,5.0,68,0.00,,,0.00,Wunderground v.1.15,2013-08-12 17:20:00,
2013-08-12 11:30:00,70.2,58.7,29.99,South,185,3.0,3.0,67,0.00,,,0.00,Wunderground v.1.15,2013-08-12 17:30:00,
2013-08-12 11:40:00,70.6,57.8,29.98,SSE,167,3.0,3.0,64,0.00,,,0.00,Wunderground v.1.15,2013-08-12 17:40:00,
2013-08-12 11:50:00,71.7,58.9,29.98,SSE,161,1.0,1.0,64,0.00,,,0.00,Wunderground v.1.15,2013-08-12 17:50:00,
2013-08-12 12:00:00,72.1,57.9,29.98,SSE,157,2.0,2.0,61,0.00,,,0.00,Wunderground v.1.15,2013-08-12 18:00:00,
2013-08-12 12:10:00,73.1,57.4,29.97,SSE,150,3.0,3.0,58,0.00,,,0.00,Wunderground v.1.15,2013-08-12 18:10:00,
2013-08-12 12:20:00,73.7,58.0,29.97,SSE,165,2.0,2.0,58,0.00,,,0.00,Wunderground v.1.15,2013-08-12 18:20:00,
2013-08-12 12:30:00,74.2,56.0,29.96,SSE,163,4.0,4.0,53,0.00,,,0.00,Wunderground v.1.15,2013-08-12 18:30:00,
2013-08-12 12:40:00,74.3,56.6,29.95,SE,142,4.0,4.0,54,0.00,,,0.00,Wunderground v.1.15,2013-08-12 18:40:00,
2013-08-12 12:50:00,75.1,55.7,29.95,SE,142,4.0,6.0,51,0.00,,,0.00,Wunderground v.1.15,2013-08-12 18:50:00,
2013-08-12 13:00:00,75.6,55.6,29.95,SE,124,3.0,3.0,50,0.00,,,0.00,Wunderground v.1.15,2013-08-12 19:00:00,
2013-08-12 13:10:00,76.2,55.1,29.95,SSE,155,4.0,4.0,48,0.00,,,0.00,Wunderground v.1.15,2013-08-12 19:10:00,
2013-08-12 13:20:00,76.9,55.7,29.94,SSE,155,3.0,5.0,48,0.00,,,0.00,Wunderground v.1.15,2013-08-12 19:20:00,
2013-08-12 13:30:00,77.9,56.0,29.93,SE,136,3.0,5.0,47,0.00,,,0.00,Wunderground v.1.15,2013-08-12 19:30:00,
2013-08-12 13:40:00,78.0,55.5,29.92,SSE,153,4.0,11.0,46,0.00,,,0.00,Wunderground v.1.15,2013-08-12 19:40:00,
2013-08-12 13:50:00,78.8,55.0,29.92,SE,130,4.0,4.0,44,0.00,,,0.00,Wunderground v.1.15,2013-08-12 19:50:00,
2013-08-12 14:00:00,79.4,55.0,29.92,SE,145,5.0,5.0,43,0.00,,,0.00,Wunderground v.1.15,2013-08-12 20:00:00,
2013-08-12 14:10:00,79.4,54.3,29.91,SSE,153,3.0,3.0,42,0.00,,,0.00,Wunderground v.1.15,2013-08-12 20:10:00,
2013-08-12 14:20:00,80.0,54.8,29.91,South,184,4.0,5.0,42,0.00,,,0.00,Wunderground v.1.15,2013-08-12 20:20:00,
2013-08-12 14:30:00,81.1,55.2,29.90,SSW,211,4.0,4.0,41,0.00,,,0.00,Wunderground v.1.15,2013-08-12 20:30:00,
2013-08-12 14:40:00,82.1,54.7,29.90,South,191,2.0,2.0,39,0.00,,,0.00,Wunderground v.1.15,2013-08-12 20:40:00,
2013-08-12 14:50:00,82.7,55.2,29.89,SE,140,2.0,3.0,39,0.00,,,0.00,Wunderground v.1.15,2013-08-12 20:50:00,
2013-08-12 15:00:00,82.8,54.6,29.89,WSW,244,3.0,3.0,38,0.00,,,0.00,Wunderground v.1.15,2013-08-12 21:00:00,
2013-08-12 15:10:00,82.3,54.2,29.88,South,172,4.0,4.0,38,0.00,,,0.00,Wunderground v.1.15,2013-08-12 21:10:00,
2013-08-12 15:20:00,83.7,54.7,29.87,South,184,2.0,3.0,37,0.00,,,0.00,Wunderground v.1.15,2013-08-12 21:20:00,
2013-08-12 15:30:00,83.8,54.0,29.87,SSE,163,4.0,5.0,36,0.00,,,0.00,Wunderground v.1.15,2013-08-12 21:30:00,
2013-08-12 15:40:00,83.9,55.6,29.87,South,187,4.0,4.0,38,0.00,,,0.00,Wunderground v.1.15,2013-08-12 21:40:00,
2013-08-12 16:00:00,84.7,54.8,29.87,South,182,4.0,5.0,36,0.00,,,0.00,Wunderground v.1.15,2013-08-12 22:00:00,
2013-08-12 16:10:00,84.0,54.2,29.87,SW,221,6.0,6.0,36,0.00,,,0.00,Wunderground v.1.15,2013-08-12 22:10:00,
2013-08-12 16:20:00,83.3,53.6,29.87,SSW,194,5.0,5.0,36,0.00,,,0.00,Wunderground v.1.15,2013-08-12 22:20:00,
2013-08-12 16:30:00,83.5,54.5,29.86,South,169,4.0,7.0,37,0.00,,,0.00,Wunderground v.1.15,2013-08-12 22:30:00,
2013-08-12 16:40:00,83.2,54.2,29.86,SSE,167,7.0,7.0,37,0.00,,,0.00,Wunderground v.1.15,2013-08-12 22:40:00,
2013-08-12 16:50:00,84.1,55.0,29.86,SSW,192,6.0,6.0,37,0.00,,,0.00,Wunderground v.1.15,2013-08-12 22:50:00,
2013-08-12 17:00:00,83.7,55.4,29.86,SSE,155,7.0,7.0,38,0.00,,,0.00,Wunderground v.1.15,2013-08-12 23:00:00,
2013-08-12 17:10:00,83.1,55.6,29.86,South,180,9.0,13.0,39,0.00,,,0.00,Wunderground v.1.15,2013-08-12 23:10:00,
2013-08-12 17:20:00,82.9,57.5,29.85,SE,143,8.0,14.0,42,0.00,,,0.00,Wunderground v.1.15,2013-08-12 23:20:00,
2013-08-12 17:30:00,82.6,57.2,29.85,SSE,162,9.0,10.0,42,0.00,,,0.00,Wunderground v.1.15,2013-08-12 23:30:00,
2013-08-12 17:40:00,82.0,58.6,29.85,SSE,153,8.0,8.0,45,0.00,,,0.00,Wunderground v.1.15,2013-08-12 23:40:00,
2013-08-12 17:50:00,81.0,59.5,29.86,South,173,7.0,7.0,48,0.00,,,0.00,Wunderground v.1.15,2013-08-12 23:50:00,
2013-08-12 18:00:00,80.5,57.2,29.86,SSE,154,7.0,7.0,45,0.00,,,0.00,Wunderground v.1.15,2013-08-13 00:00:00,
2013-08-12 18:10:00,80.0,56.7,29.86,SSW,198,6.0,7.0,45,0.00,,,0.00,Wunderground v.1.15,2013-08-13 00:10:00,
2013-08-12 18:20:00,80.1,54.9,29.86,SSW,193,7.0,7.0,42,0.00,,,0.00,Wunderground v.1.15,2013-08-13 00:20:00,
2013-08-12 18:30:00,80.0,58.0,29.87,South,185,6.0,7.0,47,0.00,,,0.00,Wunderground v.1.15,2013-08-13 00:30:00,
2013-08-12 18:40:00,79.4,59.1,29.86,South,177,5.0,7.0,50,0.00,,,0.00,Wunderground v.1.15,2013-08-13 00:40:00,
2013-08-12 18:50:00,78.8,59.1,29.85,SSE,166,7.0,8.0,51,0.00,,,0.00,Wunderground v.1.15,2013-08-13 00:50:00,
2013-08-12 19:00:00,78.3,58.7,29.85,SSE,160,7.0,7.0,51,0.00,,,0.00,Wunderground v.1.15,2013-08-13 01:00:00,
2013-08-12 19:10:00,78.0,58.4,29.85,SSE,163,6.0,6.0,51,0.00,,,0.00,Wunderground v.1.15,2013-08-13 01:10:00,
2013-08-12 19:20:00,78.0,59.5,29.85,South,181,6.0,7.0,53,0.00,,,0.00,Wunderground v.1.15,2013-08-13 01:20:00,
2013-08-12 19:30:00,78.0,58.4,29.85,SE,136,5.0,5.0,51,0.00,,,0.00,Wunderground v.1.15,2013-08-13 01:30:00,
2013-08-12 19:40:00,77.7,57.6,29.85,SE,138,4.0,4.0,50,0.00,,,0.00,Wunderground v.1.15,2013-08-13 01:40:00,
2013-08-12 19:50:00,77.6,56.9,29.85,SE,136,3.0,3.0,49,0.00,,,0.00,Wunderground v.1.15,2013-08-13 01:50:00,
2013-08-12 20:00:00,77.6,55.2,29.86,SSE,150,2.0,4.0,46,0.00,,,0.00,Wunderground v.1.15,2013-08-13 02:00:00,
2013-08-12 20:10:00,77.5,55.1,29.86,SSE,159,4.0,4.0,46,0.00,,,0.00,Wunderground v.1.15,2013-08-13 02:10:00,
2013-08-12 20:20:00,77.3,55.5,29.86,SE,146,3.0,3.0,47,0.00,,,0.00,Wunderground v.1.15,2013-08-13 02:20:00,
2013-08-12 20:30:00,77.1,55.9,29.86,SE,146,1.0,3.0,48,0.00,,,0.00,Wunderground v.1.15,2013-08-13 02:30:00,
2013-08-12 20:40:00,77.0,56.4,29.87,SSE,147,2.0,3.0,49,0.00,,,0.00,Wunderground v.1.15,2013-08-13 02:40:00,
2013-08-12 20:50:00,76.7,56.1,29.86,SSE,147,1.0,3.0,49,0.00,,,0.00,Wunderground v.1.15,2013-08-13 02:50:00,
2013-08-12 21:00:00,76.5,56.5,29.86,SSE,156,3.0,3.0,50,0.00,,,0.00,Wunderground v.1.15,2013-08-13 03:00:00,
2013-08-12 21:10:00,76.4,56.9,29.88,SSE,147,2.0,3.0,51,0.00,,,0.00,Wunderground v.1.15,2013-08-13 03:10:00,
2013-08-12 21:20:00,76.1,57.2,29.88,SE,140,2.0,2.0,52,0.00,,,0.00,Wunderground v.1.15,2013-08-13 03:20:00,
2013-08-12 21:30:00,75.9,57.0,29.88,SE,138,1.0,3.0,52,0.00,,,0.00,Wunderground v.1.15,2013-08-13 03:30:00,
2013-08-12 21:40:00,75.8,56.4,29.88,SE,138,1.0,1.0,51,0.00,,,0.00,Wunderground v.1.15,2013-08-13 03:40:00,
2013-08-12 22:00:00,75.8,55.3,29.89,SE,140,1.0,3.0,49,0.00,,,0.00,Wunderground v.1.15,2013-08-13 04:00:00,
2013-08-12 22:10:00,75.8,55.3,29.89,SE,140,1.0,3.0,49,0.00,,,0.00,Wunderground v.1.15,2013-08-13 04:10:00,
2013-08-12 22:20:00,75.7,55.2,29.89,SE,140,0.0,3.0,49,0.00,,,0.00,Wunderground v.1.15,2013-08-13 04:20:00,
2013-08-12 22:30:00,75.7,55.2,29.89,SE,140,1.0,1.0,49,0.00,,,0.00,Wunderground v.1.15,2013-08-13 04:30:00,
2013-08-12 22:40:00,75.6,55.1,29.89,SE,140,0.0,3.0,49,0.00,,,0.00,Wunderground v.1.15,2013-08-13 04:40:00,
2013-08-12 22:50:00,75.5,54.4,29.88,SE,140,0.0,3.0,48,0.00,,,0.00,Wunderground v.1.15,2013-08-13 04:50:00,
2013-08-12 23:00:00,75.2,54.7,29.88,SE,140,0.0,3.0,49,0.00,,,0.00,Wunderground v.1.15,2013-08-13 05:00:00,
2013-08-12 23:10:00,75.1,54.1,29.89,SE,140,0.0,3.0,48,0.00,,,0.00,Wunderground v.1.15,2013-08-13 05:10:00,
2013-08-12 23:20:00,75.1,54.1,29.89,SE,140,0.0,3.0,48,0.00,,,0.00,Wunderground v.1.15,2013-08-13 05:20:00,
2013-08-12 23:30:00,75.1,53.5,29.89,SE,140,0.0,3.0,47,0.00,,,0.00,Wunderground v.1.15,2013-08-13 05:30:00,
2013-08-12 23:40:00,75.3,53.1,29.89,SE,140,1.0,1.0,46,0.00,,,0.00,Wunderground v.1.15,2013-08-13 05:40:00,
2013-08-12 23:50:00,74.9,52.7,29.90,SE,140,0.0,3.0,46,0.00,,,0.00,Wunderground v.1.15,2013-08-13 05:50:00,